createdAt,value
2018-06-10T00:00:32.262Z,0.00
2018-06-10T00:02:32.299Z,0.00
2018-06-10T00:03:32.558Z,0.00
2018-06-10T00:04:32.129Z,0.00
2018-06-10T00:05:32.156Z,0.00
2018-06-10T00:06:32.164Z,0.00
2018-06-10T00:07:32.190Z,0.00
2018-06-10T00:08:32.198Z,0.00
2018-06-10T00:09:32.214Z,0.00
2018-06-10T00:10:32.233Z,0.00
2018-06-10T00:11:32.254Z,0.00
2018-06-10T00:12:32.266Z,0.00
2018-06-10T00:13:32.291Z,0.00
2018-06-10T00:14:32.301Z,0.00
2018-06-10T00:15:32.317Z,0.00
2018-06-10T00:16:32.334Z,0.00
2018-06-10T00:17:32.351Z,0.00
2018-06-10T00:18:32.372Z,0.00
2018-06-10T00:19:32.387Z,0.00
2018-06-10T00:20:32.407Z,0.00
2018-06-10T00:21:32.421Z,0.00
2018-06-10T00:22:32.452Z,0.00
2018-06-10T00:23:32.555Z,0.00
2018-06-10T00:24:32.471Z,0.00
2018-06-10T00:25:32.496Z,0.00
2018-06-10T00:26:32.506Z,0.00
2018-06-10T00:27:32.532Z,0.00
2018-06-10T00:28:32.549Z,0.00
2018-06-10T00:29:32.560Z,0.00
2018-06-10T00:30:32.575Z,0.00
2018-06-10T00:31:32.592Z,0.00
2018-06-10T00:32:32.608Z,0.00
2018-06-10T00:33:32.625Z,0.00
2018-06-10T00:34:32.643Z,0.00
2018-06-10T00:35:32.661Z,0.00
2018-06-10T00:36:32.777Z,0.00
2018-06-10T00:37:32.712Z,0.00
2018-06-10T00:38:32.712Z,0.00
2018-06-10T00:39:32.730Z,0.00
2018-06-10T00:40:32.744Z,0.00
2018-06-10T00:41:32.763Z,0.00
2018-06-10T00:42:32.781Z,0.00
2018-06-10T00:43:32.798Z,0.00
2018-06-10T00:44:32.815Z,0.00
2018-06-10T00:45:32.834Z,0.00
2018-06-10T00:46:32.849Z,0.00
2018-06-10T00:47:32.866Z,0.00
2018-06-10T00:48:32.888Z,0.00
2018-06-10T00:49:32.901Z,0.00
2018-06-10T00:50:32.922Z,0.00
2018-06-10T00:51:32.935Z,0.00
2018-06-10T00:52:32.952Z,0.00
2018-06-10T00:53:32.980Z,0.00
2018-06-10T00:54:33.073Z,0.00
2018-06-10T00:55:33.001Z,0.00
2018-06-10T00:56:33.030Z,0.00
2018-06-10T00:57:33.050Z,0.00
2018-06-10T00:58:33.056Z,0.00
2018-06-10T00:59:33.081Z,0.00
2018-06-10T01:00:33.089Z,0.00
2018-06-10T01:01:33.109Z,0.00
2018-06-10T01:02:33.137Z,0.00
2018-06-10T01:03:33.253Z,0.00
2018-06-10T01:04:33.157Z,0.00
2018-06-10T01:05:33.175Z,0.00
2018-06-10T01:06:33.193Z,0.00
2018-06-10T01:07:33.210Z,0.00
2018-06-10T01:08:33.227Z,0.00
2018-06-10T01:09:33.290Z,0.00
2018-06-10T01:10:33.262Z,0.00
2018-06-10T01:11:33.279Z,0.00
2018-06-10T01:12:33.298Z,4.00
2018-06-10T01:13:33.311Z,0.00
2018-06-10T01:14:33.328Z,0.00
2018-06-10T01:15:33.346Z,0.00
2018-06-10T01:16:33.362Z,0.00
2018-06-10T01:17:33.381Z,0.00
2018-06-10T01:18:33.397Z,0.00
2018-06-10T01:19:33.414Z,0.00
2018-06-10T01:20:33.433Z,0.00
2018-06-10T01:21:33.448Z,0.00
2018-06-10T01:22:33.464Z,0.00
2018-06-10T01:23:33.482Z,0.00
2018-06-10T01:24:33.501Z,0.00
2018-06-10T01:25:33.516Z,0.00
2018-06-10T01:26:33.534Z,0.00
2018-06-10T01:27:33.549Z,0.00
2018-06-10T01:28:33.567Z,0.00
2018-06-10T01:29:33.583Z,0.00
2018-06-10T01:30:33.600Z,0.00
2018-06-10T01:31:33.617Z,0.00
2018-06-10T01:32:33.637Z,0.00
2018-06-10T01:33:33.648Z,0.00
2018-06-10T01:34:33.665Z,0.00
2018-06-10T01:35:33.686Z,0.00
2018-06-10T01:36:33.701Z,0.00
2018-06-10T01:37:33.715Z,0.00
2018-06-10T01:38:33.732Z,0.00
2018-06-10T01:39:33.776Z,0.00
2018-06-10T01:40:33.767Z,0.00
2018-06-10T01:41:33.783Z,0.00
2018-06-10T01:42:33.901Z,0.00
2018-06-10T01:44:34.265Z,0.00
2018-06-10T01:45:33.974Z,0.00
2018-06-10T01:46:33.865Z,0.00
2018-06-10T01:47:33.882Z,0.00
2018-06-10T01:48:33.919Z,0.00
2018-06-10T01:49:33.915Z,0.00
2018-06-10T01:50:33.933Z,0.00
2018-06-10T01:51:33.952Z,0.00
2018-06-10T01:52:33.969Z,0.00
2018-06-10T01:53:33.983Z,0.00
2018-06-10T01:54:34.016Z,0.00
2018-06-10T01:55:34.016Z,0.00
2018-06-10T01:56:34.034Z,0.00
2018-06-10T01:57:34.052Z,0.00
2018-06-10T01:58:34.070Z,0.00
2018-06-10T01:59:34.084Z,0.00
2018-06-10T02:00:34.100Z,0.00
2018-06-10T02:01:34.115Z,0.00
2018-06-10T02:02:34.133Z,0.00
2018-06-10T02:03:34.150Z,0.00
2018-06-10T02:04:34.166Z,0.00
2018-06-10T02:05:34.189Z,0.00
2018-06-10T02:06:34.201Z,0.00
2018-06-10T02:07:34.219Z,0.00
2018-06-10T02:08:34.246Z,0.00
2018-06-10T02:09:34.261Z,0.00
2018-06-10T02:10:34.280Z,0.00
2018-06-10T02:11:34.285Z,0.00
2018-06-10T02:12:34.300Z,0.00
2018-06-10T02:13:34.328Z,0.00
2018-06-10T02:14:34.335Z,0.00
2018-06-10T02:15:34.363Z,0.00
2018-06-10T02:16:34.396Z,0.00
2018-06-10T02:17:34.385Z,0.00
2018-06-10T02:18:34.402Z,0.00
2018-06-10T02:19:34.419Z,0.00
2018-06-10T02:20:34.435Z,0.00
2018-06-10T02:21:34.452Z,0.00
2018-06-10T02:22:34.483Z,0.00
2018-06-10T02:23:34.490Z,0.00
2018-06-10T02:24:34.504Z,0.00
2018-06-10T02:25:34.520Z,0.00
2018-06-10T02:26:34.539Z,0.00
2018-06-10T02:27:34.554Z,0.00
2018-06-10T02:28:34.573Z,0.00
2018-06-10T02:29:34.590Z,0.00
2018-06-10T02:30:34.628Z,0.00
2018-06-10T02:31:34.622Z,0.00
2018-06-10T02:32:34.645Z,0.00
2018-06-10T02:33:34.655Z,0.00
2018-06-10T02:34:34.674Z,0.00
2018-06-10T02:35:34.693Z,0.00
2018-06-10T02:36:34.706Z,0.00
2018-06-10T02:37:34.728Z,0.00
2018-06-10T02:38:34.741Z,0.00
2018-06-10T02:39:34.759Z,0.00
2018-06-10T02:40:34.776Z,4.00
2018-06-10T02:41:34.793Z,4.00
2018-06-10T02:42:34.812Z,4.00
2018-06-10T02:43:34.827Z,4.00
2018-06-10T02:44:34.843Z,4.00
2018-06-10T02:45:34.858Z,4.00
2018-06-10T02:46:34.876Z,4.00
2018-06-10T02:47:34.894Z,4.00
2018-06-10T02:48:34.911Z,4.00
2018-06-10T02:49:34.979Z,4.00
2018-06-10T02:50:34.954Z,4.00
2018-06-10T02:51:35.000Z,4.00
2018-06-10T02:52:34.989Z,4.00
2018-06-10T02:53:35.002Z,4.00
2018-06-10T02:54:35.014Z,4.00
2018-06-10T02:55:35.031Z,4.00
2018-06-10T02:56:35.047Z,4.00
2018-06-10T02:57:35.065Z,4.00
2018-06-10T02:58:35.081Z,4.00
2018-06-10T02:59:35.106Z,4.00
2018-06-10T03:00:35.118Z,4.00
2018-06-10T03:01:35.134Z,4.00
2018-06-10T03:02:35.153Z,0.00
2018-06-10T03:03:35.166Z,4.00
2018-06-10T03:04:35.191Z,4.00
2018-06-10T03:05:35.201Z,4.00
2018-06-10T03:06:35.215Z,4.00
2018-06-10T03:07:35.233Z,4.00
2018-06-10T03:08:35.259Z,4.00
2018-06-10T03:09:35.264Z,4.00
2018-06-10T03:10:35.278Z,4.00
2018-06-10T03:11:35.297Z,4.00
2018-06-10T03:12:35.311Z,8.00
2018-06-10T03:13:35.327Z,8.00
2018-06-10T03:14:35.355Z,4.00
2018-06-10T03:15:35.362Z,4.00
2018-06-10T03:16:35.379Z,8.00
2018-06-10T03:17:35.396Z,8.00
2018-06-10T03:18:35.414Z,8.00
2018-06-10T03:19:35.430Z,8.00
2018-06-10T03:20:35.446Z,4.00
2018-06-10T03:21:35.468Z,8.00
2018-06-10T03:22:35.483Z,4.00
2018-06-10T03:23:35.528Z,8.00
2018-06-10T03:24:35.515Z,8.00
2018-06-10T03:25:35.531Z,8.00
2018-06-10T03:26:35.578Z,12.00
2018-06-10T03:27:35.565Z,8.00
2018-06-10T03:28:35.580Z,12.00
2018-06-10T03:29:35.598Z,12.00
2018-06-10T03:30:35.621Z,12.00
2018-06-10T03:31:35.633Z,12.00
2018-06-10T03:32:35.648Z,12.00
2018-06-10T03:33:35.670Z,12.00
2018-06-10T03:34:35.681Z,12.00
2018-06-10T03:35:35.700Z,16.00
2018-06-10T03:36:35.715Z,20.00
2018-06-10T03:37:35.736Z,20.00
2018-06-10T03:38:35.751Z,20.00
2018-06-10T03:39:35.769Z,24.00
2018-06-10T03:40:35.783Z,20.00
2018-06-10T03:41:35.800Z,24.00
2018-06-10T03:42:35.817Z,24.00
2018-06-10T03:43:35.834Z,24.00
2018-06-10T03:44:35.850Z,28.00
2018-06-10T03:45:35.866Z,28.00
2018-06-10T03:46:35.889Z,32.00
2018-06-10T03:47:35.902Z,36.00
2018-06-10T03:48:35.916Z,36.00
2018-06-10T03:49:35.934Z,36.00
2018-06-10T03:50:35.955Z,40.00
2018-06-10T03:51:35.970Z,44.00
2018-06-10T03:52:35.984Z,44.00
2018-06-10T03:53:36.002Z,48.00
2018-06-10T03:54:36.024Z,48.00
2018-06-10T03:55:36.138Z,48.00
2018-06-10T03:56:36.052Z,56.00
2018-06-10T03:57:36.070Z,56.00
2018-06-10T03:58:36.187Z,60.00
2018-06-10T03:59:36.111Z,64.00
2018-06-10T04:00:36.121Z,68.00
2018-06-10T04:01:36.138Z,72.00
2018-06-10T04:02:36.153Z,76.00
2018-06-10T04:03:36.175Z,80.00
2018-06-10T04:04:36.193Z,80.00
2018-06-10T04:05:36.205Z,84.00
2018-06-10T04:06:36.222Z,84.00
2018-06-10T04:07:36.241Z,84.00
2018-06-10T04:08:36.256Z,88.00
2018-06-10T04:09:36.276Z,84.00
2018-06-10T04:10:36.289Z,80.00
2018-06-10T04:11:36.305Z,84.00
2018-06-10T04:12:36.330Z,96.00
2018-06-10T04:13:36.353Z,100.00
2018-06-10T04:14:36.355Z,112.00
2018-06-10T04:15:36.373Z,120.00
2018-06-10T04:16:36.391Z,128.00
2018-06-10T04:17:36.410Z,132.00
2018-06-10T04:18:36.428Z,140.00
2018-06-10T04:19:36.444Z,144.00
2018-06-10T04:20:36.460Z,148.00
2018-06-10T04:21:36.473Z,148.00
2018-06-10T04:22:36.495Z,156.00
2018-06-10T04:23:36.556Z,172.00
2018-06-10T04:24:36.524Z,180.00
2018-06-10T04:25:36.540Z,188.00
2018-06-10T04:26:36.558Z,192.00
2018-06-10T04:27:36.576Z,200.00
2018-06-10T04:28:36.593Z,208.00
2018-06-10T04:29:36.608Z,208.00
2018-06-10T04:30:36.639Z,228.00
2018-06-10T04:31:36.648Z,240.00
2018-06-10T04:32:36.662Z,244.00
2018-06-10T04:33:36.684Z,256.00
2018-06-10T04:34:36.708Z,260.00
2018-06-10T04:35:36.711Z,264.00
2018-06-10T04:36:36.728Z,292.00
2018-06-10T04:37:36.744Z,312.00
2018-06-10T04:38:36.763Z,320.00
2018-06-10T04:39:36.778Z,336.00
2018-06-10T04:40:36.796Z,352.00
2018-06-10T04:41:36.809Z,364.00
2018-06-10T04:42:36.832Z,380.00
2018-06-10T04:43:36.845Z,388.00
2018-06-10T04:44:36.863Z,404.00
2018-06-10T04:45:36.877Z,412.00
2018-06-10T04:46:36.895Z,420.00
2018-06-10T04:47:36.907Z,428.00
2018-06-10T04:48:36.922Z,436.00
2018-06-10T04:49:36.939Z,440.00
2018-06-10T04:50:36.957Z,456.00
2018-06-10T04:51:36.980Z,468.00
2018-06-10T04:52:36.990Z,488.00
2018-06-10T04:53:37.010Z,504.00
2018-06-10T04:54:37.025Z,516.00
2018-06-10T04:55:37.041Z,512.00
2018-06-10T04:56:37.058Z,460.00
2018-06-10T04:57:37.076Z,480.00
2018-06-10T04:58:37.093Z,452.00
2018-06-10T04:59:37.108Z,460.00
2018-06-10T05:00:37.124Z,444.00
2018-06-10T05:01:37.143Z,452.00
2018-06-10T05:02:37.173Z,512.00
2018-06-10T05:03:37.175Z,564.00
2018-06-10T05:04:37.191Z,596.00
2018-06-10T05:05:37.208Z,612.00
2018-06-10T05:06:37.225Z,640.00
2018-06-10T05:07:37.243Z,684.00
2018-06-10T05:08:37.258Z,680.00
2018-06-10T05:09:37.279Z,684.00
2018-06-10T05:10:37.294Z,712.00
2018-06-10T05:11:37.309Z,700.00
2018-06-10T05:12:37.328Z,700.00
2018-06-10T05:13:37.342Z,696.00
2018-06-10T05:14:37.365Z,700.00
2018-06-10T05:15:37.376Z,704.00
2018-06-10T05:16:37.398Z,704.00
2018-06-10T05:17:37.410Z,708.00
2018-06-10T05:18:37.427Z,712.00
2018-06-10T05:19:37.478Z,724.00
2018-06-10T05:20:37.465Z,728.00
2018-06-10T05:21:37.484Z,740.00
2018-06-10T05:22:37.499Z,756.00
2018-06-10T05:23:37.512Z,772.00
2018-06-10T05:24:37.527Z,784.00
2018-06-10T05:25:37.545Z,792.00
2018-06-10T05:26:37.563Z,800.00
2018-06-10T05:27:37.578Z,804.00
2018-06-10T05:28:37.595Z,812.00
2018-06-10T05:29:37.612Z,812.00
2018-06-10T05:30:37.633Z,816.00
2018-06-10T05:31:37.648Z,816.00
2018-06-10T05:33:37.797Z,824.00
2018-06-10T05:34:37.761Z,832.00
2018-06-10T05:35:37.722Z,848.00
2018-06-10T05:36:37.732Z,852.00
2018-06-10T05:37:37.772Z,864.00
2018-06-10T05:38:37.765Z,868.00
2018-06-10T05:39:37.781Z,872.00
2018-06-10T05:40:37.799Z,876.00
2018-06-10T05:41:37.814Z,864.00
2018-06-10T05:42:37.836Z,864.00
2018-06-10T05:43:37.853Z,856.00
2018-06-10T05:44:37.868Z,848.00
2018-06-10T05:45:37.882Z,840.00
2018-06-10T05:46:37.903Z,828.00
2018-06-10T05:47:37.918Z,816.00
2018-06-10T05:48:37.939Z,804.00
2018-06-10T05:49:37.950Z,784.00
2018-06-10T05:50:37.971Z,768.00
2018-06-10T05:51:37.988Z,744.00
2018-06-10T05:52:38.000Z,724.00
2018-06-10T05:53:38.027Z,708.00
2018-06-10T05:54:38.039Z,696.00
2018-06-10T05:55:38.054Z,692.00
2018-06-10T05:56:38.072Z,696.00
2018-06-10T05:57:38.091Z,708.00
2018-06-10T05:58:38.105Z,720.00
2018-06-10T05:59:38.221Z,732.00
2018-06-10T06:00:38.139Z,744.00
2018-06-10T06:01:38.161Z,752.00
2018-06-10T06:02:38.172Z,760.00
2018-06-10T06:03:38.188Z,768.00
2018-06-10T06:04:38.211Z,768.00
2018-06-10T06:05:38.223Z,776.00
2018-06-10T06:06:38.241Z,776.00
2018-06-10T06:07:38.257Z,780.00
2018-06-10T06:08:38.274Z,780.00
2018-06-10T06:09:38.292Z,780.00
2018-06-10T06:10:38.319Z,780.00
2018-06-10T06:11:38.324Z,776.00
2018-06-10T06:12:38.340Z,772.00
2018-06-10T06:13:38.358Z,764.00
2018-06-10T06:14:38.375Z,752.00
2018-06-10T06:15:38.394Z,736.00
2018-06-10T06:16:38.410Z,728.00
2018-06-10T06:17:38.426Z,716.00
2018-06-10T06:18:38.444Z,700.00
2018-06-10T06:19:38.461Z,684.00
2018-06-10T06:20:38.478Z,672.00
2018-06-10T06:21:38.493Z,660.00
2018-06-10T06:22:38.512Z,648.00
2018-06-10T06:23:38.529Z,648.00
2018-06-10T06:24:38.548Z,652.00
2018-06-10T06:25:38.566Z,660.00
2018-06-10T06:26:38.585Z,680.00
2018-06-10T06:27:38.598Z,704.00
2018-06-10T06:28:38.606Z,732.00
2018-06-10T06:29:38.622Z,764.00
2018-06-10T06:30:38.641Z,796.00
2018-06-10T06:31:38.666Z,832.00
2018-06-10T06:32:38.689Z,864.00
2018-06-10T06:33:38.693Z,896.00
2018-06-10T06:34:38.710Z,928.00
2018-06-10T06:35:38.726Z,964.00
2018-06-10T06:36:38.846Z,1004.00
2018-06-10T06:37:38.759Z,1056.00
2018-06-10T06:38:38.786Z,1104.00
2018-06-10T06:39:38.792Z,1152.00
2018-06-10T06:40:38.818Z,1212.00
2018-06-10T06:41:38.827Z,1264.00
2018-06-10T06:42:38.844Z,1308.00
2018-06-10T06:43:38.859Z,1352.00
2018-06-10T06:44:38.968Z,1388.00
2018-06-10T06:45:38.907Z,1436.00
2018-06-10T06:46:38.914Z,1472.00
2018-06-10T06:47:38.927Z,1504.00
2018-06-10T06:48:38.944Z,1524.00
2018-06-10T06:49:38.960Z,1520.00
2018-06-10T06:50:38.979Z,1580.00
2018-06-10T06:51:38.994Z,1604.00
2018-06-10T06:52:39.098Z,1620.00
2018-06-10T06:53:39.043Z,1644.00
2018-06-10T06:54:39.045Z,1712.00
2018-06-10T06:55:39.067Z,1784.00
2018-06-10T06:56:39.080Z,1860.00
2018-06-10T06:57:39.097Z,1924.00
2018-06-10T06:58:39.111Z,1996.00
2018-06-10T06:59:39.145Z,2056.00
2018-06-10T07:00:39.145Z,2112.00
2018-06-10T07:01:39.171Z,2172.00
2018-06-10T07:02:39.180Z,2208.00
2018-06-10T07:03:39.198Z,2288.00
2018-06-10T07:04:39.221Z,2336.00
2018-06-10T07:05:39.233Z,2332.00
2018-06-10T07:06:39.255Z,2320.00
2018-06-10T07:07:39.271Z,2392.00
2018-06-10T07:08:39.298Z,2556.00
2018-06-10T07:09:39.300Z,2576.00
2018-06-10T07:10:39.334Z,2572.00
2018-06-10T07:11:39.343Z,2648.00
2018-06-10T07:12:39.353Z,2684.00
2018-06-10T07:13:39.365Z,2712.00
2018-06-10T07:14:39.388Z,2772.00
2018-06-10T07:15:39.466Z,2748.00
2018-06-10T07:16:39.505Z,2752.00
2018-06-10T07:17:39.490Z,2688.00
2018-06-10T07:18:39.481Z,2712.00
2018-06-10T07:19:39.468Z,2820.00
2018-06-10T07:20:39.486Z,2904.00
2018-06-10T07:21:39.504Z,3016.00
2018-06-10T07:22:39.524Z,3000.00
2018-06-10T07:23:39.546Z,2944.00
2018-06-10T07:24:39.555Z,2808.00
2018-06-10T07:25:39.574Z,2692.00
2018-06-10T07:26:39.599Z,2720.00
2018-06-10T07:27:39.613Z,2564.00
2018-06-10T07:28:39.631Z,2416.00
2018-06-10T07:29:39.643Z,2416.00
2018-06-10T07:30:39.661Z,2488.00
2018-06-10T07:31:39.679Z,2484.00
2018-06-10T07:32:39.696Z,2392.00
2018-06-10T07:33:39.718Z,2500.00
2018-06-10T07:34:39.727Z,2656.00
2018-06-10T07:35:39.746Z,2744.00
2018-06-10T07:36:39.765Z,2844.00
2018-06-10T07:37:39.779Z,3036.00
2018-06-10T07:38:39.809Z,3148.00
2018-06-10T07:39:39.817Z,3104.00
2018-06-10T07:40:39.898Z,2880.00
2018-06-10T07:41:39.850Z,2812.00
2018-06-10T07:42:39.880Z,2820.00
2018-06-10T07:43:39.888Z,2804.00
2018-06-10T07:44:39.902Z,2872.00
2018-06-10T07:45:39.919Z,2976.00
2018-06-10T07:46:39.943Z,2904.00
2018-06-10T07:47:39.960Z,2944.00
2018-06-10T07:48:40.048Z,3104.00
2018-06-10T07:49:39.997Z,3232.00
2018-06-10T07:50:40.070Z,3360.00
2018-06-10T07:51:40.046Z,3536.00
2018-06-10T07:52:40.125Z,3752.00
2018-06-10T07:53:40.063Z,3704.00
2018-06-10T07:54:40.083Z,3556.00
2018-06-10T07:55:40.098Z,3472.00
2018-06-10T07:56:40.111Z,3548.00
2018-06-10T07:57:40.128Z,3740.00
2018-06-10T07:58:40.158Z,3948.00
2018-06-10T07:59:40.173Z,4116.00
2018-06-10T08:00:40.208Z,4076.00
2018-06-10T08:01:40.201Z,4020.00
2018-06-10T08:02:40.256Z,4020.00
2018-06-10T08:03:40.236Z,4032.00
2018-06-10T08:04:40.253Z,3820.00
2018-06-10T08:05:40.270Z,4024.00
2018-06-10T08:06:40.291Z,4260.00
2018-06-10T08:07:40.311Z,4372.00
2018-06-10T08:08:40.323Z,4456.00
2018-06-10T08:09:40.338Z,4516.00
2018-06-10T08:10:40.359Z,4500.00
2018-06-10T08:11:40.371Z,4616.00
2018-06-10T08:12:40.388Z,4756.00
2018-06-10T08:13:40.406Z,4740.00
2018-06-10T08:14:40.425Z,5112.00
2018-06-10T08:15:40.444Z,5092.00
2018-06-10T08:16:40.466Z,4584.00
2018-06-10T08:17:40.481Z,4276.00
2018-06-10T08:18:40.532Z,4216.00
2018-06-10T08:19:40.515Z,4188.00
2018-06-10T08:20:40.534Z,4188.00
2018-06-10T08:21:40.549Z,4168.00
2018-06-10T08:22:40.574Z,4088.00
2018-06-10T08:23:40.599Z,4072.00
2018-06-10T08:24:40.652Z,4148.00
2018-06-10T08:25:40.630Z,4268.00
2018-06-10T08:26:40.666Z,4200.00
2018-06-10T08:27:40.660Z,4224.00
2018-06-10T08:28:40.679Z,4284.00
2018-06-10T08:29:40.703Z,4008.00
2018-06-10T08:30:40.718Z,4084.00
2018-06-10T08:31:40.738Z,3968.00
2018-06-10T08:32:40.754Z,3728.00
2018-06-10T08:33:40.790Z,3460.00
2018-06-10T08:34:40.789Z,3308.00
2018-06-10T08:35:40.808Z,3372.00
2018-06-10T08:36:40.825Z,3452.00
2018-06-10T08:37:40.844Z,3540.00
2018-06-10T08:38:40.864Z,3504.00
2018-06-10T08:39:40.884Z,3404.00
2018-06-10T08:40:40.897Z,3380.00
2018-06-10T08:41:40.916Z,3416.00
2018-06-10T08:42:40.936Z,3544.00
2018-06-10T08:43:40.956Z,3632.00
2018-06-10T08:44:40.983Z,3668.00
2018-06-10T08:45:40.991Z,3668.00
2018-06-10T08:46:41.007Z,3584.00
2018-06-10T08:47:41.039Z,3552.00
2018-06-10T08:48:41.046Z,3604.00
2018-06-10T08:49:41.064Z,3664.00
2018-06-10T08:50:41.087Z,3676.00
2018-06-10T08:51:41.102Z,3708.00
2018-06-10T08:52:41.134Z,3732.00
2018-06-10T08:53:41.139Z,3696.00
2018-06-10T08:54:41.242Z,3636.00
2018-06-10T08:55:41.238Z,3544.00
2018-06-10T08:56:41.195Z,3432.00
2018-06-10T08:57:41.324Z,3272.00
2018-06-10T08:58:41.227Z,3032.00
2018-06-10T08:59:41.250Z,2784.00
2018-06-10T09:00:41.317Z,2664.00
2018-06-10T09:01:41.586Z,2688.00
2018-06-10T09:02:41.342Z,2832.00
2018-06-10T09:03:41.317Z,3064.00
2018-06-10T09:04:41.337Z,3348.00
2018-06-10T09:05:41.357Z,3564.00
2018-06-10T09:06:41.379Z,3696.00
2018-06-10T09:07:41.396Z,3804.00
2018-06-10T09:08:41.516Z,3940.00
2018-06-10T09:09:41.431Z,4020.00
2018-06-10T09:10:41.450Z,4180.00
2018-06-10T09:11:41.467Z,4472.00
2018-06-10T09:12:41.485Z,4612.00
2018-06-10T09:13:41.504Z,4596.00
2018-06-10T09:14:41.614Z,4340.00
2018-06-10T09:15:41.541Z,3980.00
2018-06-10T09:16:41.561Z,3972.00
2018-06-10T09:17:41.581Z,3852.00
2018-06-10T09:18:41.600Z,4172.00
2018-06-10T09:19:41.605Z,3620.00
2018-06-10T09:20:41.633Z,3336.00
2018-06-10T09:21:41.662Z,3304.00
2018-06-10T09:22:41.668Z,3284.00
2018-06-10T09:23:41.698Z,3432.00
2018-06-10T09:24:41.704Z,3704.00
2018-06-10T09:25:41.718Z,3924.00
2018-06-10T09:26:42.043Z,4316.00
2018-06-10T09:27:41.758Z,4384.00
2018-06-10T09:28:41.892Z,4356.00
2018-06-10T09:29:41.806Z,4240.00
2018-06-10T09:30:41.809Z,4020.00
2018-06-10T09:31:41.828Z,5156.00
2018-06-10T09:32:41.849Z,4220.00
2018-06-10T09:33:41.863Z,3324.00
2018-06-10T09:34:41.884Z,3192.00
2018-06-10T09:35:41.917Z,3296.00
2018-06-10T09:36:41.923Z,3592.00
2018-06-10T09:37:41.965Z,3892.00
2018-06-10T09:38:41.956Z,4088.00
2018-06-10T09:39:41.997Z,4608.00
2018-06-10T09:40:41.998Z,6304.00
2018-06-10T09:41:42.012Z,6124.00
2018-06-10T09:42:42.034Z,6592.00
2018-06-10T09:43:42.044Z,7080.00
2018-06-10T09:44:42.106Z,7088.00
2018-06-10T09:45:42.080Z,6048.00
2018-06-10T09:46:42.099Z,4344.00
2018-06-10T09:47:42.120Z,3700.00
2018-06-10T09:48:42.133Z,3092.00
2018-06-10T09:49:42.174Z,2832.00
2018-06-10T09:50:42.171Z,2928.00
2018-06-10T09:51:42.187Z,3024.00
2018-06-10T09:52:42.218Z,3088.00
2018-06-10T09:53:42.228Z,3168.00
2018-06-10T09:54:42.254Z,3264.00
2018-06-10T09:55:42.505Z,3324.00
2018-06-10T09:56:42.277Z,3424.00
2018-06-10T09:57:42.305Z,3688.00
2018-06-10T09:58:42.316Z,4068.00
2018-06-10T09:59:42.335Z,4640.00
2018-06-10T10:00:42.356Z,4732.00
2018-06-10T10:01:42.377Z,5108.00
2018-06-10T10:02:42.442Z,5308.00
2018-06-10T10:03:42.416Z,5544.00
2018-06-10T10:04:42.496Z,5796.00
2018-06-10T10:05:42.495Z,4644.00
2018-06-10T10:06:42.464Z,4612.00
2018-06-10T10:07:42.491Z,4864.00
2018-06-10T10:08:42.545Z,4712.00
2018-06-10T10:09:42.527Z,4072.00
2018-06-10T10:10:42.541Z,3960.00
2018-06-10T10:11:42.567Z,3952.00
2018-06-10T10:12:42.573Z,3900.00
2018-06-10T10:13:42.594Z,3892.00
2018-06-10T10:14:42.629Z,3912.00
2018-06-10T10:15:42.632Z,4004.00
2018-06-10T10:16:42.647Z,4160.00
2018-06-10T10:17:42.780Z,4260.00
2018-06-10T10:18:42.687Z,4316.00
2018-06-10T10:19:42.709Z,4348.00
2018-06-10T10:20:42.722Z,4364.00
2018-06-10T10:21:42.741Z,4788.00
2018-06-10T10:22:42.760Z,4912.00
2018-06-10T10:23:42.783Z,4880.00
2018-06-10T10:24:42.818Z,5172.00
2018-06-10T10:25:42.828Z,6120.00
2018-06-10T10:26:42.838Z,6432.00
2018-06-10T10:27:42.852Z,6340.00
2018-06-10T10:28:42.878Z,6180.00
2018-06-10T10:29:42.913Z,5692.00
2018-06-10T10:30:42.912Z,4448.00
2018-06-10T10:31:42.930Z,4464.00
2018-06-10T10:32:42.947Z,4436.00
2018-06-10T10:33:42.970Z,4432.00
2018-06-10T10:34:42.985Z,4664.00
2018-06-10T10:35:43.007Z,4780.00
2018-06-10T10:36:43.023Z,4912.00
2018-06-10T10:37:43.049Z,4920.00
2018-06-10T10:38:43.063Z,4940.00
2018-06-10T10:39:43.156Z,4916.00
2018-06-10T10:40:43.557Z,4948.00
2018-06-10T10:41:43.180Z,4880.00
2018-06-10T10:42:43.186Z,5128.00
2018-06-10T10:43:43.154Z,5572.00
2018-06-10T10:44:43.178Z,5704.00
2018-06-10T10:45:43.206Z,6532.00
2018-06-10T10:46:43.216Z,5072.00
2018-06-10T10:47:43.229Z,5004.00
2018-06-10T10:48:43.265Z,5072.00
2018-06-10T10:49:43.268Z,5180.00
2018-06-10T10:50:43.285Z,5100.00
2018-06-10T10:51:43.311Z,5008.00
2018-06-10T10:52:43.325Z,4816.00
2018-06-10T10:53:43.357Z,4752.00
2018-06-10T10:54:43.364Z,4524.00
2018-06-10T10:55:43.384Z,4384.00
2018-06-10T10:56:43.405Z,4764.00
2018-06-10T10:57:43.424Z,5860.00
2018-06-10T10:58:43.440Z,5756.00
2018-06-10T10:59:43.467Z,5620.00
2018-06-10T11:00:43.476Z,5392.00
2018-06-10T11:01:43.495Z,5948.00
2018-06-10T11:02:43.523Z,6052.00
2018-06-10T11:03:43.558Z,6168.00
2018-06-10T11:04:43.554Z,6060.00
2018-06-10T11:05:43.603Z,5724.00
2018-06-10T11:06:43.593Z,5180.00
2018-06-10T11:07:43.638Z,5680.00
2018-06-10T11:08:43.630Z,6012.00
2018-06-10T11:09:43.652Z,6044.00
2018-06-10T11:10:43.667Z,6272.00
2018-06-10T11:11:43.687Z,6924.00
2018-06-10T11:12:43.705Z,6444.00
2018-06-10T11:13:43.726Z,6412.00
2018-06-10T11:14:43.818Z,4924.00
2018-06-10T11:15:43.883Z,4188.00
2018-06-10T11:16:44.317Z,4084.00
2018-06-10T11:17:43.901Z,4460.00
2018-06-10T11:18:43.847Z,5892.00
2018-06-10T11:19:43.842Z,6132.00
2018-06-10T11:20:43.864Z,6308.00
2018-06-10T11:21:44.185Z,5260.00
2018-06-10T11:22:43.895Z,5268.00
2018-06-10T11:23:43.914Z,5584.00
2018-06-10T11:24:43.940Z,5648.00
2018-06-10T11:25:43.962Z,5640.00
2018-06-10T11:26:43.972Z,6864.00
2018-06-10T11:27:43.999Z,6908.00
2018-06-10T11:28:44.015Z,7312.00
2018-06-10T11:29:44.036Z,6972.00
2018-06-10T11:30:44.055Z,6236.00
2018-06-10T11:31:44.083Z,5664.00
2018-06-10T11:32:44.105Z,5932.00
2018-06-10T11:33:44.107Z,6148.00
2018-06-10T11:34:44.128Z,6116.00
2018-06-10T11:35:44.161Z,6428.00
2018-06-10T11:36:44.170Z,6760.00
2018-06-10T11:37:44.192Z,6308.00
2018-06-10T11:38:44.201Z,6696.00
2018-06-10T11:39:44.244Z,7084.00
2018-06-10T11:40:44.240Z,7344.00
2018-06-10T11:41:44.258Z,6744.00
2018-06-10T11:42:44.281Z,7580.00
2018-06-10T11:43:44.304Z,7528.00
2018-06-10T11:44:44.343Z,7516.00
2018-06-10T11:45:44.487Z,6040.00
2018-06-10T11:46:44.531Z,6132.00
2018-06-10T11:47:44.605Z,6360.00
2018-06-10T11:48:44.902Z,6244.00
2018-06-10T11:50:44.621Z,7668.00
2018-06-10T11:51:45.074Z,7712.00
2018-06-10T11:52:44.476Z,7000.00
2018-06-10T11:53:44.506Z,7120.00
2018-06-10T11:54:44.523Z,7544.00
2018-06-10T11:55:44.535Z,7112.00
2018-06-10T11:56:44.556Z,6572.00
2018-06-10T11:57:44.582Z,6076.00
2018-06-10T11:58:44.606Z,5892.00
2018-06-10T11:59:44.616Z,5724.00
2018-06-10T12:00:44.658Z,5732.00
2018-06-10T12:01:44.660Z,5776.00
2018-06-10T12:02:44.693Z,5760.00
2018-06-10T12:03:44.712Z,5836.00
2018-06-10T12:04:44.754Z,6532.00
2018-06-10T12:05:44.738Z,7072.00
2018-06-10T12:06:44.766Z,7440.00
2018-06-10T12:07:44.776Z,8524.00
2018-06-10T12:08:44.809Z,8528.00
2018-06-10T12:09:44.819Z,8820.00
2018-06-10T12:10:44.893Z,8808.00
2018-06-10T12:11:44.860Z,8412.00
2018-06-10T12:12:44.979Z,6852.00
2018-06-10T12:13:44.932Z,8640.00
2018-06-10T12:14:44.925Z,8720.00
2018-06-10T12:15:44.943Z,6868.00
2018-06-10T12:16:44.961Z,7132.00
2018-06-10T12:17:44.978Z,8124.00
2018-06-10T12:18:45.000Z,8952.00
2018-06-10T12:19:45.020Z,8604.00
2018-06-10T12:20:45.051Z,6580.00
2018-06-10T12:21:45.061Z,7376.00
2018-06-10T12:22:45.115Z,9264.00
2018-06-10T12:23:45.210Z,7508.00
2018-06-10T12:24:45.134Z,7596.00
2018-06-10T12:25:45.196Z,7172.00
2018-06-10T12:26:45.208Z,7144.00
2018-06-10T12:27:45.465Z,7620.00
2018-06-10T12:28:45.217Z,8248.00
2018-06-10T12:29:45.235Z,8028.00
2018-06-10T12:30:45.247Z,9276.00
2018-06-10T12:31:45.276Z,8540.00
2018-06-10T12:32:45.289Z,9088.00
2018-06-10T12:33:45.308Z,9356.00
2018-06-10T12:34:45.333Z,10048.00
2018-06-10T12:35:45.354Z,10648.00